sensor_id;sensor_type;location;lat;lon;timestamp;P1;durP1;ratioP1;P2;durP2;ratioP2
35803;SDS011;21924;51.934;7.414;2022-07-05T00:02:33;4.25;;;2.00;;
35803;SDS011;21924;51.934;7.414;2022-07-05T00:05:17;5.00;;;1.95;;
35803;SDS011;21924;51.934;7.414;2022-07-05T00:08:02;6.68;;;2.30;;
35803;SDS011;21924;51.934;7.414;2022-07-05T00:10:46;5.18;;;1.70;;
35803;SDS011;21924;51.934;7.414;2022-07-05T00:13:31;2.95;;;1.75;;
35803;SDS011;21924;51.934;7.414;2022-07-05T00:16:16;2.33;;;1.70;;
35803;SDS011;21924;51.934;7.414;2022-07-05T00:19:00;2.22;;;1.67;;
35803;SDS011;21924;51.934;7.414;2022-07-05T00:21:44;2.72;;;1.88;;
35803;SDS011;21924;51.934;7.414;2022-07-05T00:24:29;3.83;;;1.48;;
35803;SDS011;21924;51.934;7.414;2022-07-05T00:27:14;3.38;;;1.77;;
35803;SDS011;21924;51.934;7.414;2022-07-05T00:29:58;1.73;;;1.40;;
35803;SDS011;21924;51.934;7.414;2022-07-05T00:32:42;2.47;;;1.60;;
35803;SDS011;21924;51.934;7.414;2022-07-05T00:35:26;5.38;;;2.13;;
35803;SDS011;21924;51.934;7.414;2022-07-05T00:38:10;1.58;;;1.48;;
35803;SDS011;21924;51.934;7.414;2022-07-05T00:40:54;2.30;;;1.52;;
35803;SDS011;21924;51.934;7.414;2022-07-05T00:43:51;2.90;;;1.40;;
35803;SDS011;21924;51.934;7.414;2022-07-05T00:46:39;3.22;;;1.60;;
35803;SDS011;21924;51.934;7.414;2022-07-05T00:49:25;4.88;;;1.45;;
35803;SDS011;21924;51.934;7.414;2022-07-05T00:52:10;1.90;;;1.40;;
35803;SDS011;21924;51.934;7.414;2022-07-05T00:54:55;2.03;;;1.60;;
35803;SDS011;21924;51.934;7.414;2022-07-05T00:57:39;7.22;;;1.70;;
35803;SDS011;21924;51.934;7.414;2022-07-05T01:00:23;1.80;;;1.50;;
35803;SDS011;21924;51.934;7.414;2022-07-05T01:03:08;3.30;;;1.50;;
35803;SDS011;21924;51.934;7.414;2022-07-05T01:05:52;2.53;;;1.70;;
35803;SDS011;21924;51.934;7.414;2022-07-05T01:08:41;1.90;;;1.60;;
35803;SDS011;21924;51.934;7.414;2022-07-05T01:11:25;2.25;;;1.65;;
35803;SDS011;21924;51.934;7.414;2022-07-05T01:14:15;4.15;;;2.13;;
35803;SDS011;21924;51.934;7.414;2022-07-05T01:17:01;5.50;;;1.30;;
35803;SDS011;21924;51.934;7.414;2022-07-05T01:19:45;4.50;;;1.70;;
35803;SDS011;21924;51.934;7.414;2022-07-05T01:22:38;8.60;;;1.80;;
35803;SDS011;21924;51.934;7.414;2022-07-05T01:25:33;2.35;;;1.80;;
35803;SDS011;21924;51.934;7.414;2022-07-05T01:28:18;1.65;;;1.40;;
35803;SDS011;21924;51.934;7.414;2022-07-05T01:31:02;2.00;;;1.80;;
35803;SDS011;21924;51.934;7.414;2022-07-05T01:33:46;3.58;;;1.92;;
35803;SDS011;21924;51.934;7.414;2022-07-05T01:36:31;4.90;;;1.60;;
35803;SDS011;21924;51.934;7.414;2022-07-05T01:39:16;2.58;;;1.42;;
35803;SDS011;21924;51.934;7.414;2022-07-05T01:42:02;3.40;;;1.63;;
35803;SDS011;21924;51.934;7.414;2022-07-05T01:44:47;1.67;;;1.40;;
35803;SDS011;21924;51.934;7.414;2022-07-05T01:47:43;1.60;;;1.25;;
35803;SDS011;21924;51.934;7.414;2022-07-05T01:50:29;5.25;;;1.55;;
35803;SDS011;21924;51.934;7.414;2022-07-05T01:53:21;1.92;;;1.70;;
35803;SDS011;21924;51.934;7.414;2022-07-05T01:56:07;3.95;;;1.63;;
35803;SDS011;21924;51.934;7.414;2022-07-05T01:58:51;1.98;;;1.75;;
35803;SDS011;21924;51.934;7.414;2022-07-05T02:01:37;2.35;;;1.50;;
35803;SDS011;21924;51.934;7.414;2022-07-05T02:04:22;2.40;;;1.77;;
35803;SDS011;21924;51.934;7.414;2022-07-05T02:07:09;1.70;;;1.60;;
35803;SDS011;21924;51.934;7.414;2022-07-05T02:09:53;2.60;;;1.83;;
35803;SDS011;21924;51.934;7.414;2022-07-05T02:12:37;3.95;;;1.77;;
35803;SDS011;21924;51.934;7.414;2022-07-05T02:15:21;4.63;;;1.90;;
35803;SDS011;21924;51.934;7.414;2022-07-05T02:18:06;4.88;;;1.75;;
35803;SDS011;21924;51.934;7.414;2022-07-05T02:20:51;1.45;;;1.30;;
35803;SDS011;21924;51.934;7.414;2022-07-05T02:23:35;3.97;;;1.77;;
35803;SDS011;21924;51.934;7.414;2022-07-05T02:26:20;2.08;;;1.90;;
35803;SDS011;21924;51.934;7.414;2022-07-05T02:29:05;5.88;;;1.98;;
35803;SDS011;21924;51.934;7.414;2022-07-05T02:31:49;3.72;;;1.80;;
35803;SDS011;21924;51.934;7.414;2022-07-05T02:34:34;2.83;;;1.67;;
35803;SDS011;21924;51.934;7.414;2022-07-05T02:37:18;2.92;;;1.70;;
35803;SDS011;21924;51.934;7.414;2022-07-05T02:40:03;1.60;;;1.40;;
35803;SDS011;21924;51.934;7.414;2022-07-05T02:42:48;2.22;;;1.38;;
35803;SDS011;21924;51.934;7.414;2022-07-05T02:45:33;1.60;;;1.38;;
35803;SDS011;21924;51.934;7.414;2022-07-05T02:48:17;1.98;;;1.50;;
35803;SDS011;21924;51.934;7.414;2022-07-05T02:51:01;2.03;;;1.80;;
35803;SDS011;21924;51.934;7.414;2022-07-05T02:53:46;4.35;;;2.00;;
35803;SDS011;21924;51.934;7.414;2022-07-05T02:56:30;4.10;;;1.67;;
35803;SDS011;21924;51.934;7.414;2022-07-05T02:59:14;3.45;;;1.52;;
35803;SDS011;21924;51.934;7.414;2022-07-05T03:01:58;3.47;;;1.83;;
35803;SDS011;21924;51.934;7.414;2022-07-05T03:04:43;2.42;;;1.88;;
35803;SDS011;21924;51.934;7.414;2022-07-05T03:07:27;2.55;;;1.92;;
35803;SDS011;21924;51.934;7.414;2022-07-05T03:10:11;4.15;;;1.77;;
35803;SDS011;21924;51.934;7.414;2022-07-05T03:12:55;2.13;;;1.80;;
35803;SDS011;21924;51.934;7.414;2022-07-05T03:15:39;4.22;;;1.77;;
35803;SDS011;21924;51.934;7.414;2022-07-05T03:18:23;2.35;;;1.90;;
35803;SDS011;21924;51.934;7.414;2022-07-05T03:21:07;2.83;;;2.00;;
35803;SDS011;21924;51.934;7.414;2022-07-05T03:23:52;7.43;;;2.20;;
35803;SDS011;21924;51.934;7.414;2022-07-05T03:26:36;3.70;;;2.00;;
35803;SDS011;21924;51.934;7.414;2022-07-05T03:29:20;4.57;;;1.88;;
35803;SDS011;21924;51.934;7.414;2022-07-05T03:32:04;3.30;;;1.80;;
35803;SDS011;21924;51.934;7.414;2022-07-05T03:34:48;3.53;;;1.98;;
35803;SDS011;21924;51.934;7.414;2022-07-05T03:37:32;6.20;;;1.98;;
35803;SDS011;21924;51.934;7.414;2022-07-05T03:40:17;5.18;;;1.83;;
35803;SDS011;21924;51.934;7.414;2022-07-05T03:43:01;3.45;;;1.80;;
35803;SDS011;21924;51.934;7.414;2022-07-05T03:45:45;3.45;;;2.00;;
35803;SDS011;21924;51.934;7.414;2022-07-05T03:48:29;3.88;;;2.20;;
35803;SDS011;21924;51.934;7.414;2022-07-05T03:51:13;3.60;;;1.98;;
35803;SDS011;21924;51.934;7.414;2022-07-05T03:53:57;4.57;;;1.77;;
35803;SDS011;21924;51.934;7.414;2022-07-05T03:56:41;3.17;;;2.03;;
35803;SDS011;21924;51.934;7.414;2022-07-05T03:59:25;2.95;;;2.00;;
35803;SDS011;21924;51.934;7.414;2022-07-05T04:02:09;3.60;;;1.92;;
35803;SDS011;21924;51.934;7.414;2022-07-05T04:04:54;7.15;;;3.03;;
35803;SDS011;21924;51.934;7.414;2022-07-05T04:07:50;6.75;;;2.15;;
35803;SDS011;21924;51.934;7.414;2022-07-05T04:10:39;3.50;;;1.80;;
35803;SDS011;21924;51.934;7.414;2022-07-05T04:13:23;2.63;;;2.22;;
35803;SDS011;21924;51.934;7.414;2022-07-05T04:16:07;4.45;;;1.90;;
35803;SDS011;21924;51.934;7.414;2022-07-05T04:18:52;3.65;;;2.10;;
35803;SDS011;21924;51.934;7.414;2022-07-05T04:21:36;2.83;;;1.92;;
35803;SDS011;21924;51.934;7.414;2022-07-05T04:24:20;2.05;;;1.85;;
35803;SDS011;21924;51.934;7.414;2022-07-05T04:27:05;3.38;;;1.98;;
35803;SDS011;21924;51.934;7.414;2022-07-05T04:29:49;5.85;;;2.20;;
35803;SDS011;21924;51.934;7.414;2022-07-05T04:32:33;1.63;;;1.35;;
35803;SDS011;21924;51.934;7.414;2022-07-05T04:35:18;3.78;;;1.48;;
35803;SDS011;21924;51.934;7.414;2022-07-05T04:38:02;2.17;;;1.27;;
35803;SDS011;21924;51.934;7.414;2022-07-05T04:40:46;6.20;;;1.58;;
35803;SDS011;21924;51.934;7.414;2022-07-05T04:43:30;1.45;;;1.13;;
35803;SDS011;21924;51.934;7.414;2022-07-05T04:46:16;3.85;;;1.50;;
35803;SDS011;21924;51.934;7.414;2022-07-05T04:49:00;4.22;;;1.30;;
35803;SDS011;21924;51.934;7.414;2022-07-05T04:51:44;7.00;;;1.70;;
35803;SDS011;21924;51.934;7.414;2022-07-05T04:54:28;1.92;;;1.02;;
35803;SDS011;21924;51.934;7.414;2022-07-05T04:57:12;3.05;;;1.10;;
35803;SDS011;21924;51.934;7.414;2022-07-05T04:59:56;3.08;;;1.20;;
35803;SDS011;21924;51.934;7.414;2022-07-05T05:02:41;3.58;;;1.30;;
35803;SDS011;21924;51.934;7.414;2022-07-05T05:05:25;6.97;;;2.03;;
35803;SDS011;21924;51.934;7.414;2022-07-05T05:08:09;1.70;;;1.35;;
35803;SDS011;21924;51.934;7.414;2022-07-05T05:10:53;1.67;;;1.45;;
35803;SDS011;21924;51.934;7.414;2022-07-05T05:13:37;4.57;;;1.35;;
35803;SDS011;21924;51.934;7.414;2022-07-05T05:16:21;3.75;;;1.40;;
35803;SDS011;21924;51.934;7.414;2022-07-05T05:19:05;3.53;;;1.27;;
35803;SDS011;21924;51.934;7.414;2022-07-05T05:21:50;1.15;;;1.05;;
35803;SDS011;21924;51.934;7.414;2022-07-05T05:24:34;2.20;;;1.20;;
35803;SDS011;21924;51.934;7.414;2022-07-05T05:27:18;2.28;;;1.48;;
35803;SDS011;21924;51.934;7.414;2022-07-05T05:30:02;1.67;;;1.50;;
35803;SDS011;21924;51.934;7.414;2022-07-05T05:32:49;3.15;;;1.80;;
35803;SDS011;21924;51.934;7.414;2022-07-05T05:35:34;3.25;;;2.17;;
35803;SDS011;21924;51.934;7.414;2022-07-05T05:38:18;4.03;;;1.90;;
35803;SDS011;21924;51.934;7.414;2022-07-05T05:41:02;2.85;;;2.10;;
35803;SDS011;21924;51.934;7.414;2022-07-05T05:43:47;4.75;;;2.30;;
35803;SDS011;21924;51.934;7.414;2022-07-05T05:46:31;3.72;;;1.92;;
35803;SDS011;21924;51.934;7.414;2022-07-05T05:49:15;2.35;;;1.77;;
35803;SDS011;21924;51.934;7.414;2022-07-05T05:51:59;4.80;;;2.10;;
35803;SDS011;21924;51.934;7.414;2022-07-05T05:54:43;3.33;;;1.98;;
35803;SDS011;21924;51.934;7.414;2022-07-05T05:57:27;3.45;;;1.80;;
35803;SDS011;21924;51.934;7.414;2022-07-05T06:00:12;2.30;;;1.70;;
35803;SDS011;21924;51.934;7.414;2022-07-05T06:02:58;2.40;;;1.83;;
35803;SDS011;21924;51.934;7.414;2022-07-05T06:05:42;3.40;;;1.83;;
35803;SDS011;21924;51.934;7.414;2022-07-05T06:08:26;3.10;;;1.80;;
35803;SDS011;21924;51.934;7.414;2022-07-05T06:11:10;2.42;;;1.73;;
35803;SDS011;21924;51.934;7.414;2022-07-05T06:13:55;3.42;;;1.88;;
35803;SDS011;21924;51.934;7.414;2022-07-05T06:16:39;5.03;;;2.00;;
35803;SDS011;21924;51.934;7.414;2022-07-05T06:19:23;4.15;;;2.08;;
35803;SDS011;21924;51.934;7.414;2022-07-05T06:22:07;3.10;;;1.70;;
35803;SDS011;21924;51.934;7.414;2022-07-05T06:24:51;2.67;;;2.38;;
35803;SDS011;21924;51.934;7.414;2022-07-05T06:27:39;2.70;;;1.80;;
35803;SDS011;21924;51.934;7.414;2022-07-05T06:30:24;3.15;;;1.70;;
35803;SDS011;21924;51.934;7.414;2022-07-05T06:33:10;3.28;;;1.88;;
35803;SDS011;21924;51.934;7.414;2022-07-05T06:35:54;2.30;;;1.90;;
35803;SDS011;21924;51.934;7.414;2022-07-05T06:38:38;4.40;;;2.60;;
35803;SDS011;21924;51.934;7.414;2022-07-05T06:41:22;5.18;;;1.80;;
35803;SDS011;21924;51.934;7.414;2022-07-05T06:44:06;2.03;;;1.50;;
35803;SDS011;21924;51.934;7.414;2022-07-05T06:46:50;4.97;;;1.25;;
35803;SDS011;21924;51.934;7.414;2022-07-05T06:49:34;1.83;;;1.40;;
35803;SDS011;21924;51.934;7.414;2022-07-05T06:52:18;2.33;;;1.30;;
35803;SDS011;21924;51.934;7.414;2022-07-05T06:55:02;2.47;;;1.40;;
35803;SDS011;21924;51.934;7.414;2022-07-05T06:57:47;1.40;;;1.30;;
35803;SDS011;21924;51.934;7.414;2022-07-05T07:00:31;2.13;;;1.60;;
35803;SDS011;21924;51.934;7.414;2022-07-05T07:03:16;1.75;;;1.35;;
35803;SDS011;21924;51.934;7.414;2022-07-05T07:06:00;5.00;;;1.60;;
35803;SDS011;21924;51.934;7.414;2022-07-05T07:08:44;3.13;;;1.70;;
35803;SDS011;21924;51.934;7.414;2022-07-05T07:11:48;4.85;;;1.55;;
35803;SDS011;21924;51.934;7.414;2022-07-05T07:14:32;5.68;;;1.52;;
35803;SDS011;21924;51.934;7.414;2022-07-05T07:17:16;1.80;;;1.40;;
35803;SDS011;21924;51.934;7.414;2022-07-05T07:20:01;3.15;;;1.60;;
35803;SDS011;21924;51.934;7.414;2022-07-05T07:22:45;1.67;;;1.33;;
35803;SDS011;21924;51.934;7.414;2022-07-05T07:25:30;3.65;;;1.88;;
35803;SDS011;21924;51.934;7.414;2022-07-05T07:28:14;3.13;;;1.50;;
35803;SDS011;21924;51.934;7.414;2022-07-05T07:30:58;4.47;;;1.63;;
35803;SDS011;21924;51.934;7.414;2022-07-05T07:33:42;4.18;;;1.70;;
35803;SDS011;21924;51.934;7.414;2022-07-05T07:36:27;2.50;;;1.52;;
35803;SDS011;21924;51.934;7.414;2022-07-05T07:39:11;3.22;;;1.75;;
35803;SDS011;21924;51.934;7.414;2022-07-05T07:41:55;3.05;;;2.08;;
35803;SDS011;21924;51.934;7.414;2022-07-05T07:44:39;1.65;;;1.27;;
35803;SDS011;21924;51.934;7.414;2022-07-05T07:47:23;6.15;;;1.30;;
35803;SDS011;21924;51.934;7.414;2022-07-05T07:50:08;2.08;;;1.33;;
35803;SDS011;21924;51.934;7.414;2022-07-05T07:52:53;2.97;;;1.30;;
35803;SDS011;21924;51.934;7.414;2022-07-05T07:55:37;2.28;;;1.27;;
35803;SDS011;21924;51.934;7.414;2022-07-05T07:58:21;2.38;;;1.20;;
35803;SDS011;21924;51.934;7.414;2022-07-05T08:01:05;2.17;;;1.27;;
35803;SDS011;21924;51.934;7.414;2022-07-05T08:03:54;1.83;;;1.00;;
35803;SDS011;21924;51.934;7.414;2022-07-05T08:06:38;9.30;;;2.05;;
35803;SDS011;21924;51.934;7.414;2022-07-05T08:09:22;1.17;;;0.90;;
35803;SDS011;21924;51.934;7.414;2022-07-05T08:12:07;1.90;;;1.00;;
35803;SDS011;21924;51.934;7.414;2022-07-05T08:14:51;1.40;;;1.13;;
35803;SDS011;21924;51.934;7.414;2022-07-05T08:17:35;3.40;;;1.20;;
35803;SDS011;21924;51.934;7.414;2022-07-05T08:20:19;2.40;;;1.20;;
35803;SDS011;21924;51.934;7.414;2022-07-05T08:23:23;4.03;;;1.10;;
35803;SDS011;21924;51.934;7.414;2022-07-05T08:26:07;1.10;;;1.00;;
35803;SDS011;21924;51.934;7.414;2022-07-05T08:28:51;2.97;;;1.10;;
35803;SDS011;21924;51.934;7.414;2022-07-05T08:31:36;1.70;;;1.30;;
35803;SDS011;21924;51.934;7.414;2022-07-05T08:34:23;4.93;;;1.70;;
35803;SDS011;21924;51.934;7.414;2022-07-05T08:37:07;3.92;;;0.85;;
35803;SDS011;21924;51.934;7.414;2022-07-05T08:39:52;1.90;;;1.40;;
35803;SDS011;21924;51.934;7.414;2022-07-05T08:42:36;5.22;;;1.20;;
35803;SDS011;21924;51.934;7.414;2022-07-05T08:45:21;1.17;;;0.90;;
35803;SDS011;21924;51.934;7.414;2022-07-05T08:48:07;4.43;;;1.17;;
35803;SDS011;21924;51.934;7.414;2022-07-05T08:50:53;1.70;;;1.00;;
35803;SDS011;21924;51.934;7.414;2022-07-05T08:53:40;1.50;;;1.00;;
35803;SDS011;21924;51.934;7.414;2022-07-05T08:56:25;0.80;;;0.80;;
35803;SDS011;21924;51.934;7.414;2022-07-05T08:59:09;2.22;;;0.88;;
35803;SDS011;21924;51.934;7.414;2022-07-05T09:01:53;1.58;;;1.05;;
35803;SDS011;21924;51.934;7.414;2022-07-05T09:04:44;1.88;;;1.02;;
35803;SDS011;21924;51.934;7.414;2022-07-05T09:07:29;1.77;;;1.05;;
35803;SDS011;21924;51.934;7.414;2022-07-05T09:10:19;2.42;;;0.80;;
35803;SDS011;21924;51.934;7.414;2022-07-05T09:13:05;0.75;;;0.75;;
35803;SDS011;21924;51.934;7.414;2022-07-05T09:15:49;3.22;;;0.93;;
35803;SDS011;21924;51.934;7.414;2022-07-05T09:18:41;2.33;;;0.93;;
35803;SDS011;21924;51.934;7.414;2022-07-05T09:21:25;1.17;;;0.77;;
35803;SDS011;21924;51.934;7.414;2022-07-05T09:27:03;2.10;;;1.10;;
35803;SDS011;21924;51.934;7.414;2022-07-05T09:29:52;0.80;;;0.80;;
35803;SDS011;21924;51.934;7.414;2022-07-05T09:32:39;1.10;;;0.80;;
35803;SDS011;21924;51.934;7.414;2022-07-05T09:35:23;2.60;;;0.98;;
35803;SDS011;21924;51.934;7.414;2022-07-05T09:38:20;5.13;;;0.88;;
35803;SDS011;21924;51.934;7.414;2022-07-05T09:41:06;1.45;;;0.70;;
35803;SDS011;21924;51.934;7.414;2022-07-05T09:43:55;4.05;;;1.00;;
35803;SDS011;21924;51.934;7.414;2022-07-05T09:46:39;5.95;;;1.10;;
35803;SDS011;21924;51.934;7.414;2022-07-05T09:49:25;1.98;;;1.00;;
35803;SDS011;21924;51.934;7.414;2022-07-05T09:52:10;2.90;;;1.13;;
35803;SDS011;21924;51.934;7.414;2022-07-05T09:55:09;1.40;;;0.90;;
35803;SDS011;21924;51.934;7.414;2022-07-05T09:58:02;1.20;;;0.93;;
35803;SDS011;21924;51.934;7.414;2022-07-05T10:00:47;1.98;;;1.20;;
35803;SDS011;21924;51.934;7.414;2022-07-05T10:03:32;3.50;;;1.10;;
35803;SDS011;21924;51.934;7.414;2022-07-05T10:06:35;2.05;;;1.25;;
35803;SDS011;21924;51.934;7.414;2022-07-05T10:09:19;3.10;;;1.38;;
35803;SDS011;21924;51.934;7.414;2022-07-05T10:12:05;2.43;;;1.10;;
35803;SDS011;21924;51.934;7.414;2022-07-05T10:14:49;2.88;;;1.02;;
35803;SDS011;21924;51.934;7.414;2022-07-05T10:17:35;1.92;;;1.00;;
35803;SDS011;21924;51.934;7.414;2022-07-05T10:20:27;2.22;;;1.30;;
35803;SDS011;21924;51.934;7.414;2022-07-05T10:23:26;1.67;;;1.40;;
35803;SDS011;21924;51.934;7.414;2022-07-05T10:26:11;3.30;;;1.20;;
35803;SDS011;21924;51.934;7.414;2022-07-05T10:28:56;1.38;;;1.13;;
35803;SDS011;21924;51.934;7.414;2022-07-05T10:31:41;9.32;;;1.90;;
35803;SDS011;21924;51.934;7.414;2022-07-05T10:34:26;5.57;;;1.20;;
35803;SDS011;21924;51.934;7.414;2022-07-05T10:37:12;6.60;;;1.23;;
35803;SDS011;21924;51.934;7.414;2022-07-05T10:39:56;5.60;;;1.30;;
35803;SDS011;21924;51.934;7.414;2022-07-05T10:42:43;3.25;;;1.55;;
35803;SDS011;21924;51.934;7.414;2022-07-05T10:45:32;1.70;;;1.05;;
35803;SDS011;21924;51.934;7.414;2022-07-05T10:48:24;1.83;;;1.02;;
35803;SDS011;21924;51.934;7.414;2022-07-05T10:54:00;5.00;;;1.42;;
35803;SDS011;21924;51.934;7.414;2022-07-05T11:00:09;4.05;;;1.02;;
35803;SDS011;21924;51.934;7.414;2022-07-05T11:03:06;1.02;;;0.80;;
35803;SDS011;21924;51.934;7.414;2022-07-05T11:06:27;22.08;;;3.00;;
35803;SDS011;21924;51.934;7.414;2022-07-05T11:09:13;13.57;;;2.72;;
35803;SDS011;21924;51.934;7.414;2022-07-05T11:12:02;14.40;;;1.92;;
35803;SDS011;21924;51.934;7.414;2022-07-05T11:14:48;3.00;;;1.25;;
35803;SDS011;21924;51.934;7.414;2022-07-05T11:17:34;0.90;;;0.77;;
35803;SDS011;21924;51.934;7.414;2022-07-05T11:20:28;2.72;;;0.98;;
35803;SDS011;21924;51.934;7.414;2022-07-05T11:23:13;3.58;;;1.20;;
35803;SDS011;21924;51.934;7.414;2022-07-05T11:25:57;4.10;;;1.30;;
35803;SDS011;21924;51.934;7.414;2022-07-05T11:28:44;1.42;;;0.93;;
35803;SDS011;21924;51.934;7.414;2022-07-05T11:31:40;0.75;;;0.75;;
35803;SDS011;21924;51.934;7.414;2022-07-05T11:34:32;1.50;;;0.83;;
35803;SDS011;21924;51.934;7.414;2022-07-05T11:37:20;1.42;;;0.77;;
35803;SDS011;21924;51.934;7.414;2022-07-05T11:42:55;4.38;;;0.95;;
35803;SDS011;21924;51.934;7.414;2022-07-05T11:45:39;2.83;;;1.17;;
35803;SDS011;21924;51.934;7.414;2022-07-05T11:48:25;2.50;;;1.35;;
35803;SDS011;21924;51.934;7.414;2022-07-05T11:51:13;15.23;;;2.65;;
35803;SDS011;21924;51.934;7.414;2022-07-05T11:53:58;12.35;;;1.08;;
35803;SDS011;21924;51.934;7.414;2022-07-05T11:56:45;2.42;;;0.80;;
35803;SDS011;21924;51.934;7.414;2022-07-05T11:59:29;1.48;;;1.00;;
35803;SDS011;21924;51.934;7.414;2022-07-05T12:02:13;1.52;;;1.00;;
35803;SDS011;21924;51.934;7.414;2022-07-05T12:04:58;3.85;;;1.35;;
35803;SDS011;21924;51.934;7.414;2022-07-05T12:07:48;3.40;;;1.20;;
35803;SDS011;21924;51.934;7.414;2022-07-05T12:10:36;2.25;;;0.95;;
35803;SDS011;21924;51.934;7.414;2022-07-05T12:13:46;25.35;;;2.03;;
35803;SDS011;21924;51.934;7.414;2022-07-05T12:16:31;1.95;;;1.05;;
35803;SDS011;21924;51.934;7.414;2022-07-05T12:19:25;0.73;;;0.70;;
35803;SDS011;21924;51.934;7.414;2022-07-05T12:22:10;1.53;;;0.80;;
35803;SDS011;21924;51.934;7.414;2022-07-05T12:24:55;6.93;;;1.23;;
35803;SDS011;21924;51.934;7.414;2022-07-05T12:27:42;4.60;;;1.92;;
35803;SDS011;21924;51.934;7.414;2022-07-05T12:33:12;1.15;;;0.73;;
35803;SDS011;21924;51.934;7.414;2022-07-05T12:35:56;2.90;;;0.73;;
35803;SDS011;21924;51.934;7.414;2022-07-05T12:38:40;5.20;;;0.70;;
35803;SDS011;21924;51.934;7.414;2022-07-05T12:41:25;1.58;;;1.08;;
35803;SDS011;21924;51.934;7.414;2022-07-05T12:44:09;3.03;;;0.68;;
35803;SDS011;21924;51.934;7.414;2022-07-05T12:47:02;0.88;;;0.80;;
35803;SDS011;21924;51.934;7.414;2022-07-05T12:49:55;3.17;;;0.90;;
35803;SDS011;21924;51.934;7.414;2022-07-05T12:56:09;2.17;;;1.00;;
35803;SDS011;21924;51.934;7.414;2022-07-05T12:59:13;3.15;;;1.60;;
35803;SDS011;21924;51.934;7.414;2022-07-05T13:01:57;5.13;;;0.77;;
35803;SDS011;21924;51.934;7.414;2022-07-05T13:04:54;1.50;;;0.80;;
35803;SDS011;21924;51.934;7.414;2022-07-05T13:07:41;2.20;;;1.50;;
35803;SDS011;21924;51.934;7.414;2022-07-05T13:10:27;1.75;;;1.15;;
35803;SDS011;21924;51.934;7.414;2022-07-05T13:13:15;1.10;;;0.80;;
35803;SDS011;21924;51.934;7.414;2022-07-05T13:16:03;6.28;;;1.25;;
35803;SDS011;21924;51.934;7.414;2022-07-05T13:18:48;5.78;;;1.23;;
35803;SDS011;21924;51.934;7.414;2022-07-05T13:21:33;9.30;;;1.67;;
35803;SDS011;21924;51.934;7.414;2022-07-05T13:24:18;4.80;;;1.33;;
35803;SDS011;21924;51.934;7.414;2022-07-05T13:27:03;5.53;;;1.08;;
35803;SDS011;21924;51.934;7.414;2022-07-05T13:29:48;1.35;;;0.75;;
35803;SDS011;21924;51.934;7.414;2022-07-05T13:32:32;4.90;;;1.48;;
35803;SDS011;21924;51.934;7.414;2022-07-05T13:35:17;1.27;;;0.90;;
35803;SDS011;21924;51.934;7.414;2022-07-05T13:38:01;1.33;;;1.00;;
35803;SDS011;21924;51.934;7.414;2022-07-05T13:40:45;3.22;;;0.88;;
35803;SDS011;21924;51.934;7.414;2022-07-05T13:43:29;6.32;;;1.13;;
35803;SDS011;21924;51.934;7.414;2022-07-05T13:46:13;1.35;;;1.02;;
35803;SDS011;21924;51.934;7.414;2022-07-05T13:48:58;1.05;;;0.93;;
35803;SDS011;21924;51.934;7.414;2022-07-05T13:51:42;3.17;;;0.98;;
35803;SDS011;21924;51.934;7.414;2022-07-05T13:54:27;4.60;;;1.23;;
35803;SDS011;21924;51.934;7.414;2022-07-05T13:57:13;6.68;;;1.30;;
35803;SDS011;21924;51.934;7.414;2022-07-05T13:59:57;4.82;;;1.35;;
35803;SDS011;21924;51.934;7.414;2022-07-05T14:02:42;2.85;;;1.40;;
35803;SDS011;21924;51.934;7.414;2022-07-05T14:05:26;1.45;;;1.15;;
35803;SDS011;21924;51.934;7.414;2022-07-05T14:08:11;5.55;;;1.40;;
35803;SDS011;21924;51.934;7.414;2022-07-05T14:10:56;2.77;;;1.30;;
35803;SDS011;21924;51.934;7.414;2022-07-05T14:13:40;1.58;;;1.25;;
35803;SDS011;21924;51.934;7.414;2022-07-05T14:16:25;7.53;;;1.33;;
35803;SDS011;21924;51.934;7.414;2022-07-05T14:19:09;2.78;;;1.40;;
35803;SDS011;21924;51.934;7.414;2022-07-05T14:21:53;3.22;;;1.50;;
35803;SDS011;21924;51.934;7.414;2022-07-05T14:24:37;2.33;;;1.40;;
35803;SDS011;21924;51.934;7.414;2022-07-05T14:27:22;4.65;;;2.03;;
35803;SDS011;21924;51.934;7.414;2022-07-05T14:30:06;1.55;;;1.25;;
35803;SDS011;21924;51.934;7.414;2022-07-05T14:32:51;3.70;;;1.70;;
35803;SDS011;21924;51.934;7.414;2022-07-05T14:35:36;2.47;;;1.38;;
35803;SDS011;21924;51.934;7.414;2022-07-05T14:38:21;2.83;;;1.65;;
35803;SDS011;21924;51.934;7.414;2022-07-05T14:41:05;2.58;;;1.40;;
35803;SDS011;21924;51.934;7.414;2022-07-05T14:43:49;4.25;;;1.75;;
35803;SDS011;21924;51.934;7.414;2022-07-05T14:46:33;2.17;;;1.70;;
35803;SDS011;21924;51.934;7.414;2022-07-05T14:49:17;1.98;;;1.70;;
35803;SDS011;21924;51.934;7.414;2022-07-05T14:52:02;2.88;;;1.77;;
35803;SDS011;21924;51.934;7.414;2022-07-05T14:54:46;3.58;;;1.60;;
35803;SDS011;21924;51.934;7.414;2022-07-05T14:57:30;6.03;;;1.67;;
35803;SDS011;21924;51.934;7.414;2022-07-05T15:00:15;5.43;;;1.50;;
35803;SDS011;21924;51.934;7.414;2022-07-05T15:03:00;3.57;;;1.60;;
35803;SDS011;21924;51.934;7.414;2022-07-05T15:05:44;2.38;;;1.40;;
35803;SDS011;21924;51.934;7.414;2022-07-05T15:08:28;2.20;;;1.40;;
35803;SDS011;21924;51.934;7.414;2022-07-05T15:11:13;3.88;;;1.15;;
35803;SDS011;21924;51.934;7.414;2022-07-05T15:13:57;2.42;;;1.27;;
35803;SDS011;21924;51.934;7.414;2022-07-05T15:16:44;4.82;;;1.60;;
35803;SDS011;21924;51.934;7.414;2022-07-05T15:19:28;2.97;;;1.50;;
35803;SDS011;21924;51.934;7.414;2022-07-05T15:22:12;3.38;;;1.33;;
35803;SDS011;21924;51.934;7.414;2022-07-05T15:24:56;1.88;;;1.08;;
35803;SDS011;21924;51.934;7.414;2022-07-05T15:27:40;1.42;;;1.00;;
35803;SDS011;21924;51.934;7.414;2022-07-05T15:30:24;3.47;;;1.30;;
35803;SDS011;21924;51.934;7.414;2022-07-05T15:33:08;3.08;;;1.20;;
35803;SDS011;21924;51.934;7.414;2022-07-05T15:35:53;4.50;;;1.40;;
35803;SDS011;21924;51.934;7.414;2022-07-05T15:38:40;3.83;;;1.33;;
35803;SDS011;21924;51.934;7.414;2022-07-05T15:41:25;2.05;;;1.30;;
35803;SDS011;21924;51.934;7.414;2022-07-05T15:44:09;5.07;;;1.40;;
35803;SDS011;21924;51.934;7.414;2022-07-05T15:46:53;2.55;;;1.48;;
35803;SDS011;21924;51.934;7.414;2022-07-05T15:49:43;1.67;;;1.17;;
35803;SDS011;21924;51.934;7.414;2022-07-05T15:52:27;3.13;;;1.23;;
35803;SDS011;21924;51.934;7.414;2022-07-05T15:55:11;3.08;;;1.48;;
35803;SDS011;21924;51.934;7.414;2022-07-05T15:57:56;2.22;;;1.27;;
35803;SDS011;21924;51.934;7.414;2022-07-05T16:00:40;3.22;;;1.45;;
35803;SDS011;21924;51.934;7.414;2022-07-05T16:03:24;2.00;;;1.17;;
35803;SDS011;21924;51.934;7.414;2022-07-05T16:06:15;2.30;;;1.25;;
35803;SDS011;21924;51.934;7.414;2022-07-05T16:08:59;9.68;;;1.35;;
35803;SDS011;21924;51.934;7.414;2022-07-05T16:11:43;6.72;;;1.95;;
35803;SDS011;21924;51.934;7.414;2022-07-05T16:14:27;10.52;;;1.42;;
35803;SDS011;21924;51.934;7.414;2022-07-05T16:17:13;3.88;;;1.20;;
35803;SDS011;21924;51.934;7.414;2022-07-05T16:19:57;5.40;;;1.33;;
35803;SDS011;21924;51.934;7.414;2022-07-05T16:22:41;4.00;;;1.40;;
35803;SDS011;21924;51.934;7.414;2022-07-05T16:25:25;4.93;;;1.40;;
35803;SDS011;21924;51.934;7.414;2022-07-05T16:28:10;2.70;;;1.20;;
35803;SDS011;21924;51.934;7.414;2022-07-05T16:30:54;11.77;;;1.50;;
35803;SDS011;21924;51.934;7.414;2022-07-05T16:33:39;6.28;;;1.20;;
35803;SDS011;21924;51.934;7.414;2022-07-05T16:36:32;2.97;;;1.17;;
35803;SDS011;21924;51.934;7.414;2022-07-05T16:39:16;7.43;;;1.30;;
35803;SDS011;21924;51.934;7.414;2022-07-05T16:42:01;3.28;;;0.90;;
35803;SDS011;21924;51.934;7.414;2022-07-05T16:44:45;4.00;;;0.80;;
35803;SDS011;21924;51.934;7.414;2022-07-05T16:47:30;1.92;;;1.00;;
35803;SDS011;21924;51.934;7.414;2022-07-05T16:50:16;4.22;;;1.10;;
35803;SDS011;21924;51.934;7.414;2022-07-05T16:53:04;4.32;;;1.13;;
35803;SDS011;21924;51.934;7.414;2022-07-05T16:55:48;2.90;;;1.25;;
35803;SDS011;21924;51.934;7.414;2022-07-05T16:58:36;1.85;;;1.20;;